Time;durP1;ratioP1;P1;durP2;ratioP2;P2;SDS_P1;SDS_P2;PMS_P1;PMS_P2;Temp;Humidity;BMP_temperature;BMP_pressure;BME280_temperature;BME280_humidity;BME280_pressure;Samples;Min_cycle;Max_cycle;Signal;HPM_P1;HPM_P2
2021/01/21 00:02:23;;;;;;;55.72;28.30;;;3.80;99.90;;;;;;4997124;28;20030;-54
2021/01/21 00:04:49;;;;;;;51.67;29.42;;;3.80;99.90;;;;;;4990454;28;20038;-57
2021/01/21 00:07:14;;;;;;;55.13;29.70;;;3.80;99.90;;;;;;4998902;28;20034;-52
2021/01/21 00:09:40;;;;;;;59.65;30.83;;;3.70;99.90;;;;;;4989360;28;20038;-57
2021/01/21 00:12:07;;;;;;;47.88;27.15;;;3.80;99.90;;;;;;4987960;28;20035;-55
2021/01/21 00:14:32;;;;;;;56.58;29.75;;;3.80;99.90;;;;;;4989451;28;20038;-56
2021/01/21 00:16:58;;;;;;;52.90;28.25;;;3.80;99.90;;;;;;4987726;28;20041;-56
2021/01/21 00:19:24;;;;;;;49.15;27.52;;;3.80;99.90;;;;;;4988171;28;20105;-53
2021/01/21 00:21:49;;;;;;;50.25;28.25;;;3.80;99.90;;;;;;5003328;28;20485;-56
2021/01/21 00:24:15;;;;;;;48.35;27.30;;;3.90;99.90;;;;;;5009002;28;20040;-55
2021/01/21 00:26:41;;;;;;;50.05;28.60;;;3.80;99.90;;;;;;5006444;28;20478;-55
2021/01/21 00:29:06;;;;;;;50.30;28.25;;;3.90;99.90;;;;;;4996075;28;20092;-57
2021/01/21 00:31:32;;;;;;;50.78;28.45;;;3.90;99.90;;;;;;4992367;28;20054;-54
2021/01/21 00:33:58;;;;;;;51.13;27.63;;;3.90;99.90;;;;;;4985932;28;20034;-58
2021/01/21 00:36:24;;;;;;;50.85;26.52;;;3.90;99.90;;;;;;4986848;28;20387;-57
2021/01/21 00:38:49;;;;;;;50.90;26.45;;;3.90;99.90;;;;;;5000383;28;20046;-57
2021/01/21 00:41:15;;;;;;;50.70;28.38;;;3.90;99.90;;;;;;5008391;28;20033;-57
2021/01/21 00:43:42;;;;;;;48.08;27.90;;;3.90;99.90;;;;;;4986752;28;20050;-57
2021/01/21 00:46:07;;;;;;;48.53;27.95;;;3.90;99.90;;;;;;4987932;28;20088;-54
2021/01/21 00:48:33;;;;;;;49.00;27.17;;;4.00;99.90;;;;;;4983671;28;20038;-57
2021/01/21 00:50:59;;;;;;;43.92;26.35;;;4.00;99.90;;;;;;5002796;28;20037;-56
2021/01/21 00:53:25;;;;;;;44.78;27.08;;;4.00;99.90;;;;;;5008158;28;20034;-55
2021/01/21 00:55:50;;;;;;;52.63;27.30;;;4.00;99.90;;;;;;4992537;28;20109;-55
2021/01/21 00:58:16;;;;;;;48.80;27.45;;;4.00;99.90;;;;;;4990540;28;20030;-58
2021/01/21 01:00:42;;;;;;;49.13;26.92;;;4.00;99.90;;;;;;4992421;28;20101;-56
2021/01/21 01:03:08;;;;;;;48.33;26.92;;;4.00;99.90;;;;;;4995561;28;20451;-55
2021/01/21 01:05:34;;;;;;;48.65;26.17;;;4.00;99.90;;;;;;4990981;28;20030;-56
2021/01/21 01:08:00;;;;;;;55.38;26.75;;;4.00;99.90;;;;;;4992622;28;20045;-55
2021/01/21 01:10:26;;;;;;;46.28;26.85;;;4.00;99.90;;;;;;4988044;28;20047;-57
2021/01/21 01:12:52;;;;;;;47.40;26.45;;;4.00;99.90;;;;;;4992441;28;20036;-56
2021/01/21 01:15:26;;;;;;;53.00;27.80;;;3.90;99.90;;;;;;4990831;28;20052;-56
2021/01/21 01:17:52;;;;;;;48.28;26.17;;;4.00;99.90;;;;;;4990730;28;20077;-57
2021/01/21 01:20:18;;;;;;;48.10;26.92;;;4.00;99.90;;;;;;4997046;28;20057;-56
2021/01/21 01:22:51;;;;;;;48.40;26.38;;;4.00;99.90;;;;;;5011582;28;20029;-56
2021/01/21 01:25:18;;;;;;;49.05;27.75;;;4.00;99.90;;;;;;4998559;28;20502;-58
2021/01/21 01:27:44;;;;;;;48.55;26.73;;;4.00;99.90;;;;;;4990578;28;20070;-56
2021/01/21 01:30:12;;;;;;;49.92;27.50;;;4.00;99.90;;;;;;5004068;28;20457;-57
2021/01/21 01:32:38;;;;;;;50.78;28.00;;;4.00;99.90;;;;;;4988079;28;20466;-55
2021/01/21 01:35:04;;;;;;;47.65;27.65;;;3.90;99.90;;;;;;4990523;28;20137;-57
2021/01/21 01:37:30;;;;;;;48.30;27.25;;;3.90;99.90;;;;;;4989239;28;20064;-56
2021/01/21 01:39:56;;;;;;;44.33;27.45;;;3.90;99.90;;;;;;5011241;28;20400;-56
2021/01/21 01:42:22;;;;;;;57.05;30.88;;;3.90;99.90;;;;;;5001600;28;20056;-54
2021/01/21 01:44:47;;;;;;;49.85;28.50;;;3.90;99.90;;;;;;4991427;28;20331;-55
2021/01/21 01:47:14;;;;;;;52.22;27.65;;;4.00;99.90;;;;;;4991004;28;20443;-57
2021/01/21 01:49:39;;;;;;;50.95;29.67;;;4.00;99.90;;;;;;4990305;28;20493;-57
2021/01/21 01:52:05;;;;;;;50.63;29.58;;;4.00;99.90;;;;;;4991356;28;20032;-57
2021/01/21 01:54:31;;;;;;;50.20;28.92;;;4.00;99.90;;;;;;4990644;28;20129;-55
2021/01/21 01:57:01;;;;;;;57.15;29.85;;;4.00;99.90;;;;;;4991526;28;20026;-56
2021/01/21 01:59:27;;;;;;;46.38;27.30;;;3.90;99.90;;;;;;4990679;28;20038;-57
2021/01/21 02:01:54;;;;;;;51.40;29.38;;;3.90;99.90;;;;;;4991087;28;20497;-57
2021/01/21 02:04:20;;;;;;;49.88;29.45;;;3.90;99.90;;;;;;4990121;28;20026;-57
2021/01/21 02:06:46;;;;;;;54.67;29.92;;;4.00;99.90;;;;;;4991202;28;20040;-55
2021/01/21 02:09:11;;;;;;;52.33;31.08;;;3.90;99.90;;;;;;4990866;28;20394;-56
2021/01/21 02:11:50;;;;;;;48.33;29.25;;;4.00;99.90;;;;;;4991027;28;20038;-57
2021/01/21 02:14:38;;;;;;;62.25;31.17;;;4.00;99.90;;;;;;4989471;28;20040;-56
2021/01/21 02:17:07;;;;;;;57.20;31.95;;;4.00;99.90;;;;;;4989933;28;20038;-57
2021/01/21 02:20:04;;;;;;;53.95;30.65;;;3.90;99.90;;;;;;4990519;28;20054;-57
2021/01/21 02:23:17;;;;;;;57.65;29.75;;;4.00;99.90;;;;;;4990105;28;20058;-57
2021/01/21 02:25:58;;;;;;;54.38;29.08;;;3.90;99.90;;;;;;4928555;28;20354;-55
2021/01/21 02:28:42;;;;;;;56.13;31.35;;;3.90;99.90;;;;;;4989848;28;20566;-57
2021/01/21 02:31:52;;;;;;;48.03;29.60;;;3.90;99.90;;;;;;4982879;28;20129;-57
2021/01/21 02:34:26;;;;;;;57.55;30.83;;;3.90;99.90;;;;;;4969718;28;20403;-57
2021/01/21 02:36:59;;;;;;;48.75;28.35;;;3.90;99.90;;;;;;4989577;28;20376;-57
2021/01/21 02:39:26;;;;;;;49.97;28.45;;;3.90;99.90;;;;;;4990835;28;20083;-57
2021/01/21 02:41:52;;;;;;;55.22;29.90;;;3.90;99.90;;;;;;4992740;28;20046;-57
2021/01/21 02:44:18;;;;;;;50.45;29.80;;;4.00;99.90;;;;;;5212359;22;20065;-57
2021/01/21 02:46:49;;;;;;;48.08;28.42;;;4.00;99.90;;;;;;5049642;28;20036;-56
2021/01/21 02:49:15;;;;;;;51.58;27.90;;;4.00;99.90;;;;;;5031537;28;20033;-57
2021/01/21 02:51:52;;;;;;;49.25;27.08;;;3.90;99.90;;;;;;5049455;28;20040;-57
2021/01/21 02:54:39;;;;;;;46.80;28.52;;;4.00;99.90;;;;;;5049353;28;20144;-55
2021/01/21 02:57:21;;;;;;;50.95;28.50;;;4.00;99.90;;;;;;5049637;28;20480;-55
2021/01/21 02:59:48;;;;;;;50.78;28.25;;;4.00;99.90;;;;;;5049669;28;20037;-56
2021/01/21 03:02:17;;;;;;;51.47;30.45;;;4.00;99.90;;;;;;5049040;28;20380;-57
2021/01/21 03:04:44;;;;;;;51.35;28.23;;;4.00;99.90;;;;;;5049238;28;20033;-56
2021/01/21 03:07:14;;;;;;;47.03;29.42;;;3.90;99.90;;;;;;5049119;28;20029;-57
2021/01/21 03:09:43;;;;;;;51.80;29.55;;;4.00;99.90;;;;;;5049545;28;20099;-55
2021/01/21 03:12:21;;;;;;;49.47;28.08;;;4.00;99.90;;;;;;5049109;28;20037;-56
2021/01/21 03:14:48;;;;;;;54.75;29.48;;;4.00;99.90;;;;;;5048688;28;20040;-56
2021/01/21 03:17:14;;;;;;;46.58;27.08;;;4.00;99.90;;;;;;5048837;28;20036;-55
2021/01/21 03:19:40;;;;;;;52.58;27.70;;;3.90;99.90;;;;;;5048867;28;20377;-53
2021/01/21 03:22:05;;;;;;;55.75;28.88;;;3.90;99.90;;;;;;5049091;28;20029;-56
2021/01/21 03:24:31;;;;;;;55.10;29.00;;;4.00;99.90;;;;;;5048989;28;20029;-56
2021/01/21 03:26:57;;;;;;;54.38;29.48;;;4.00;99.90;;;;;;5048798;28;20033;-57
2021/01/21 03:29:23;;;;;;;58.45;30.25;;;4.00;99.90;;;;;;5048636;28;20111;-57
2021/01/21 03:31:48;;;;;;;55.08;29.88;;;4.00;99.90;;;;;;5048726;28;20029;-56
2021/01/21 03:34:14;;;;;;;55.90;29.98;;;3.90;99.90;;;;;;5048889;28;20033;-57
2021/01/21 03:36:40;;;;;;;57.78;32.15;;;4.00;99.90;;;;;;5048581;28;20041;-56
2021/01/21 03:39:06;;;;;;;55.45;31.05;;;4.00;99.90;;;;;;5048531;28;20154;-56
2021/01/21 03:41:31;;;;;;;54.92;31.90;;;4.00;99.90;;;;;;5048811;28;20122;-56
2021/01/21 03:43:57;;;;;;;51.15;29.88;;;4.00;99.90;;;;;;5048237;28;20088;-57
2021/01/21 03:46:23;;;;;;;56.05;31.05;;;4.00;99.90;;;;;;5048824;28;20029;-55
2021/01/21 03:48:49;;;;;;;54.75;30.55;;;4.00;99.90;;;;;;5048672;28;20029;-53
2021/01/21 03:51:14;;;;;;;55.17;31.42;;;4.00;99.90;;;;;;5048559;28;20028;-56
2021/01/21 03:53:40;;;;;;;51.50;29.65;;;4.00;99.90;;;;;;5048709;28;20028;-56
2021/01/21 03:56:06;;;;;;;58.85;29.52;;;4.00;99.90;;;;;;5048480;28;20037;-52
2021/01/21 03:58:31;;;;;;;53.67;29.92;;;3.90;99.90;;;;;;5048155;28;20380;-56
2021/01/21 04:00:57;;;;;;;59.60;30.17;;;4.00;99.90;;;;;;5048325;28;20035;-56
2021/01/21 04:03:23;;;;;;;51.47;29.70;;;4.00;99.90;;;;;;5048536;28;20025;-55
2021/01/21 04:05:48;;;;;;;55.45;29.90;;;4.00;99.90;;;;;;5048367;28;20468;-55
2021/01/21 04:08:14;;;;;;;57.35;32.97;;;4.00;99.90;;;;;;5048117;28;20028;-57
2021/01/21 04:10:40;;;;;;;52.83;29.60;;;4.00;99.90;;;;;;5048167;28;20029;-56
2021/01/21 04:13:06;;;;;;;61.00;32.33;;;4.00;99.90;;;;;;5047935;28;20190;-55
2021/01/21 04:15:34;;;;;;;59.78;33.47;;;4.00;99.90;;;;;;5048076;28;20123;-56
2021/01/21 04:17:59;;;;;;;56.95;31.48;;;4.00;99.90;;;;;;5048010;28;20025;-57
2021/01/21 04:20:25;;;;;;;49.25;29.05;;;4.10;99.90;;;;;;5048002;28;20056;-56
2021/01/21 04:22:51;;;;;;;55.17;29.10;;;4.10;99.90;;;;;;5047937;28;20511;-57
2021/01/21 04:25:17;;;;;;;51.15;27.95;;;4.10;99.90;;;;;;5047980;28;20388;-57
2021/01/21 04:27:42;;;;;;;56.00;30.67;;;4.10;99.90;;;;;;5049052;28;20399;-55
2021/01/21 04:30:10;;;;;;;53.72;28.02;;;4.10;99.90;;;;;;5052422;28;20336;-55
2021/01/21 04:32:36;;;;;;;49.38;27.90;;;4.10;99.90;;;;;;5052176;28;20052;-57
2021/01/21 04:35:02;;;;;;;48.80;28.67;;;4.10;99.90;;;;;;5051944;28;20066;-58
2021/01/21 04:37:27;;;;;;;50.40;27.65;;;4.10;99.90;;;;;;5052316;28;20044;-56
2021/01/21 04:39:53;;;;;;;52.13;28.67;;;4.10;99.90;;;;;;5051820;28;20040;-54
2021/01/21 04:42:19;;;;;;;46.55;26.95;;;4.10;99.90;;;;;;5051647;28;20163;-56
2021/01/21 04:44:45;;;;;;;49.05;26.75;;;4.10;99.90;;;;;;5051967;28;20061;-57
2021/01/21 04:47:12;;;;;;;48.53;27.65;;;4.10;99.90;;;;;;5052133;28;20186;-57
2021/01/21 04:49:41;;;;;;;45.45;26.30;;;4.10;99.90;;;;;;5051874;28;20280;-57
2021/01/21 04:52:10;;;;;;;46.50;24.90;;;4.10;99.90;;;;;;5051937;28;20032;-57
2021/01/21 04:54:42;;;;;;;50.15;28.60;;;4.10;99.90;;;;;;5051937;28;20041;-56
2021/01/21 04:57:12;;;;;;;51.78;29.52;;;4.10;99.90;;;;;;5051685;28;20029;-56
2021/01/21 04:59:38;;;;;;;49.95;28.63;;;4.10;99.90;;;;;;5051569;28;20500;-57
2021/01/21 05:02:05;;;;;;;50.88;27.17;;;4.10;99.90;;;;;;5051572;28;20025;-56
2021/01/21 05:04:31;;;;;;;45.25;27.70;;;4.10;99.90;;;;;;5051365;28;20033;-57
2021/01/21 05:06:58;;;;;;;47.38;26.40;;;4.10;99.90;;;;;;5051559;28;20037;-57
2021/01/21 05:09:24;;;;;;;48.65;28.02;;;4.10;99.90;;;;;;5051239;28;20057;-56
2021/01/21 05:11:50;;;;;;;49.63;26.33;;;4.10;99.90;;;;;;5051503;28;20404;-57
2021/01/21 05:14:16;;;;;;;49.20;26.42;;;4.00;99.90;;;;;;5051429;28;20032;-56
2021/01/21 05:16:45;;;;;;;46.63;26.50;;;4.10;99.90;;;;;;5033515;28;20517;-57
2021/01/21 05:19:14;;;;;;;48.22;26.48;;;4.10;99.90;;;;;;5051173;28;20048;-57
2021/01/21 05:21:43;;;;;;;53.03;28.80;;;4.10;99.90;;;;;;5051249;28;20447;-56
2021/01/21 05:24:10;;;;;;;52.15;28.55;;;4.10;99.90;;;;;;5051288;28;20025;-56
2021/01/21 05:26:41;;;;;;;50.60;28.42;;;4.10;99.90;;;;;;5051463;28;20068;-55
2021/01/21 05:29:09;;;;;;;49.10;28.48;;;4.10;99.90;;;;;;5051004;28;20033;-57
2021/01/21 05:31:36;;;;;;;51.50;30.50;;;4.10;99.90;;;;;;5046336;28;20029;-55
2021/01/21 05:34:07;;;;;;;49.85;27.98;;;4.20;99.90;;;;;;5028381;28;20021;-56
2021/01/21 05:36:37;;;;;;;54.85;29.25;;;4.10;99.90;;;;;;5025359;28;20075;-56
2021/01/21 05:39:08;;;;;;;52.83;30.13;;;4.10;99.90;;;;;;5027692;28;20045;-57
2021/01/21 05:41:37;;;;;;;51.75;29.80;;;4.20;99.90;;;;;;5028083;28;20463;-56
2021/01/21 05:44:07;;;;;;;55.55;30.40;;;4.20;99.90;;;;;;5030664;28;20064;-57
2021/01/21 05:46:35;;;;;;;48.25;27.92;;;4.20;99.90;;;;;;5020706;28;20041;-57
2021/01/21 05:49:01;;;;;;;51.78;28.10;;;4.20;99.90;;;;;;5028620;28;20493;-57
2021/01/21 05:51:29;;;;;;;48.13;28.60;;;4.20;99.90;;;;;;5027933;28;20033;-58
2021/01/21 05:53:55;;;;;;;52.25;29.20;;;4.20;99.90;;;;;;5030734;28;20416;-57
2021/01/21 05:56:25;;;;;;;54.33;29.60;;;4.20;99.90;;;;;;5028732;28;20029;-57
2021/01/21 05:58:52;;;;;;;52.55;29.75;;;4.20;99.90;;;;;;5019997;28;20092;-57
2021/01/21 06:01:23;;;;;;;53.28;28.75;;;4.20;99.90;;;;;;5011266;28;20033;-57
2021/01/21 06:03:49;;;;;;;54.42;30.30;;;4.20;99.90;;;;;;5021505;28;20021;-57
2021/01/21 06:06:15;;;;;;;51.92;29.55;;;4.20;99.90;;;;;;5030390;28;20079;-57
2021/01/21 06:08:42;;;;;;;53.78;29.90;;;4.30;99.90;;;;;;5029297;28;20400;-56
2021/01/21 06:11:09;;;;;;;53.13;28.98;;;4.30;99.90;;;;;;5030361;28;20086;-58
2021/01/21 06:13:38;;;;;;;55.00;31.45;;;4.20;99.90;;;;;;5027538;28;20037;-56
2021/01/21 06:16:06;;;;;;;54.67;30.75;;;4.20;99.90;;;;;;5029029;28;20041;-58
2021/01/21 06:18:32;;;;;;;56.78;31.30;;;4.20;99.90;;;;;;5022773;28;20122;-58
2021/01/21 06:20:59;;;;;;;50.75;27.95;;;4.30;99.90;;;;;;5023898;28;20064;-56
2021/01/21 06:23:26;;;;;;;54.08;30.60;;;4.30;99.90;;;;;;5029406;28;20087;-58
2021/01/21 06:25:55;;;;;;;52.15;29.02;;;4.30;99.90;;;;;;5028674;28;20033;-57
2021/01/21 06:28:21;;;;;;;52.17;28.45;;;4.30;99.90;;;;;;5030013;28;20336;-54
2021/01/21 06:30:57;;;;;;;47.22;28.33;;;4.20;99.90;;;;;;5027714;28;20056;-57
2021/01/21 06:33:29;;;;;;;51.47;28.75;;;4.30;99.90;;;;;;5023130;28;20037;-56
2021/01/21 06:36:03;;;;;;;51.17;27.63;;;4.20;99.90;;;;;;5022140;28;20118;-58
2021/01/21 06:38:40;;;;;;;57.42;32.53;;;4.30;99.90;;;;;;5029753;28;20076;-57
2021/01/21 06:41:14;;;;;;;54.38;31.38;;;4.20;99.90;;;;;;5018244;28;20037;-57
2021/01/21 06:43:40;;;;;;;48.03;28.50;;;4.20;99.90;;;;;;5015028;28;20030;-57
2021/01/21 06:46:12;;;;;;;52.72;29.02;;;4.20;99.90;;;;;;5026221;28;20120;-57
2021/01/21 06:48:38;;;;;;;57.13;29.60;;;4.30;99.90;;;;;;5020768;28;20037;-55
2021/01/21 06:51:09;;;;;;;51.25;27.08;;;4.20;99.90;;;;;;5021605;28;20608;-57
2021/01/21 06:53:36;;;;;;;48.15;27.13;;;4.30;99.90;;;;;;5028631;28;20497;-57
2021/01/21 06:56:02;;;;;;;47.17;25.40;;;4.20;99.90;;;;;;5028486;28;20497;-56
2021/01/21 06:59:03;;;;;;;49.28;25.45;;;4.30;99.90;;;;;;5029663;28;20076;-56
2021/01/21 07:01:32;;;;;;;50.67;24.95;;;4.30;99.90;;;;;;4965242;28;20047;-57
2021/01/21 07:03:59;;;;;;;56.00;26.55;;;4.30;99.90;;;;;;4967557;28;20046;-57
2021/01/21 07:06:25;;;;;;;48.17;26.33;;;4.30;99.90;;;;;;4966936;28;20035;-56
2021/01/21 07:09:07;;;;;;;42.78;25.52;;;4.30;99.90;;;;;;4967897;28;20225;-54
2021/01/21 07:11:34;;;;;;;45.63;26.20;;;4.30;99.90;;;;;;4962533;28;20081;-57
2021/01/21 07:14:00;;;;;;;48.75;26.60;;;4.30;99.90;;;;;;4964434;28;20054;-54
2021/01/21 07:16:26;;;;;;;43.75;25.48;;;4.30;99.90;;;;;;4960751;28;20054;-55
2021/01/21 07:18:54;;;;;;;44.63;26.13;;;4.30;99.90;;;;;;4958512;28;20510;-56
2021/01/21 07:21:24;;;;;;;54.30;26.10;;;4.40;99.90;;;;;;4976234;28;20058;-56
2021/01/21 07:23:54;;;;;;;49.63;26.65;;;4.40;99.90;;;;;;4966438;28;20133;-56
2021/01/21 07:26:28;;;;;;;47.00;26.52;;;4.40;99.90;;;;;;4966586;28;20367;-55
2021/01/21 07:29:06;;;;;;;48.50;25.52;;;4.40;99.90;;;;;;4967378;28;20038;-54
2021/01/21 07:31:50;;;;;;;46.67;27.27;;;4.40;99.90;;;;;;4966469;28;20046;-56
2021/01/21 07:34:42;;;;;;;47.22;25.55;;;4.50;99.90;;;;;;4963508;28;20073;-57
2021/01/21 07:37:23;;;;;;;46.10;26.08;;;4.40;99.90;;;;;;5025983;28;20061;-55
2021/01/21 07:40:04;;;;;;;56.28;30.25;;;4.40;99.90;;;;;;5027717;28;20352;-54
2021/01/21 07:42:36;;;;;;;62.42;35.67;;;4.50;99.90;;;;;;5028760;28;20033;-53
2021/01/21 07:45:05;;;;;;;63.78;32.03;;;4.60;99.90;;;;;;5027447;28;20061;-54
2021/01/21 07:47:32;;;;;;;65.70;35.90;;;4.60;99.90;;;;;;5033679;28;20037;-57
2021/01/21 07:50:16;;;;;;;62.83;35.53;;;4.60;99.90;;;;;;5029256;28;20040;-57
2021/01/21 07:52:47;;;;;;;72.00;40.28;;;4.70;99.90;;;;;;5028286;28;20037;-57
2021/01/21 07:55:13;;;;;;;64.60;37.60;;;4.70;99.90;;;;;;5016073;28;20401;-56
2021/01/21 07:57:40;;;;;;;65.88;36.58;;;4.80;99.90;;;;;;5021398;28;20101;-55
2021/01/21 08:00:10;;;;;;;56.95;32.58;;;4.90;99.90;;;;;;5028187;28;20116;-56
2021/01/21 08:02:48;;;;;;;60.35;35.90;;;4.90;99.90;;;;;;5022407;28;20048;-55
2021/01/21 08:05:14;;;;;;;72.53;37.08;;;4.90;99.90;;;;;;5009985;28;20467;-55
2021/01/21 08:07:51;;;;;;;68.95;38.40;;;4.90;99.90;;;;;;5017331;28;20045;-56
2021/01/21 08:10:28;;;;;;;69.10;40.13;;;4.90;99.90;;;;;;5026917;28;20049;-54
2021/01/21 08:12:56;;;;;;;75.47;43.42;;;5.00;99.90;;;;;;5020740;28;20033;-56
2021/01/21 08:15:23;;;;;;;74.85;44.35;;;5.10;99.90;;;;;;5022339;28;20546;-56
2021/01/21 08:17:50;;;;;;;75.80;42.83;;;5.20;99.90;;;;;;5026933;28;20420;-53
2021/01/21 08:20:24;;;;;;;67.28;41.15;;;5.30;99.90;;;;;;5028373;28;20029;-55
2021/01/21 08:23:05;;;;;;;55.50;32.72;;;5.30;99.90;;;;;;5028308;28;20114;-54
2021/01/21 08:25:46;;;;;;;48.30;27.90;;;5.30;99.90;;;;;;5028380;28;20111;-57
2021/01/21 08:28:17;;;;;;;42.00;27.65;;;5.30;99.90;;;;;;5028401;28;20496;-57
2021/01/21 08:30:44;;;;;;;49.65;27.35;;;5.40;99.90;;;;;;5028246;28;20036;-57
2021/01/21 08:33:25;;;;;;;46.75;26.65;;;5.40;99.90;;;;;;5028138;28;20033;-57
2021/01/21 08:36:04;;;;;;;42.97;22.88;;;5.40;99.90;;;;;;5028359;28;20199;-55
2021/01/21 08:38:35;;;;;;;44.47;24.38;;;5.40;99.90;;;;;;5028021;28;20038;-56
2021/01/21 08:41:03;;;;;;;43.53;22.80;;;5.30;99.90;;;;;;5028327;28;20458;-56
2021/01/21 08:43:30;;;;;;;41.85;22.88;;;5.30;99.90;;;;;;5028004;28;20044;-57
2021/01/21 08:45:57;;;;;;;46.08;25.23;;;5.30;99.90;;;;;;5027725;28;20061;-55
2021/01/21 08:48:26;;;;;;;46.22;26.35;;;5.30;99.90;;;;;;5028105;28;20029;-56
2021/01/21 08:50:53;;;;;;;45.97;25.88;;;5.30;99.90;;;;;;5028229;28;20037;-56
2021/01/21 08:53:24;;;;;;;49.75;25.27;;;5.40;99.90;;;;;;5027966;28;20103;-57
2021/01/21 08:55:54;;;;;;;43.95;24.95;;;5.50;99.90;;;;;;5028084;28;20037;-56
2021/01/21 08:58:27;;;;;;;48.40;24.67;;;5.50;99.90;;;;;;5028230;28;20025;-55
2021/01/21 09:01:04;;;;;;;44.67;24.77;;;5.60;99.90;;;;;;5027905;28;20550;-55
2021/01/21 09:03:36;;;;;;;43.60;24.60;;;5.60;99.90;;;;;;5028131;28;20057;-56
2021/01/21 09:06:03;;;;;;;42.00;22.20;;;5.60;99.90;;;;;;5027832;28;20048;-54
2021/01/21 09:08:30;;;;;;;39.63;24.05;;;5.60;99.90;;;;;;5028120;28;20101;-57
2021/01/21 09:10:56;;;;;;;51.08;25.45;;;5.70;99.90;;;;;;5027672;28;20053;-54
2021/01/21 09:13:22;;;;;;;46.47;25.77;;;5.70;99.90;;;;;;5028153;28;20481;-57
2021/01/21 09:15:52;;;;;;;44.55;24.85;;;5.70;99.90;;;;;;5031478;28;20045;-56
2021/01/21 09:18:20;;;;;;;47.78;25.13;;;5.80;99.90;;;;;;5031339;28;20378;-56
2021/01/21 09:20:46;;;;;;;44.88;24.75;;;5.80;99.90;;;;;;5031459;28;20037;-54
2021/01/21 09:23:18;;;;;;;42.72;23.25;;;5.80;99.90;;;;;;5031376;28;20100;-56
2021/01/21 09:25:44;;;;;;;44.05;23.33;;;5.90;99.90;;;;;;5031718;28;20037;-57
2021/01/21 09:28:13;;;;;;;38.85;21.55;;;5.80;99.90;;;;;;5031345;28;20036;-55
2021/01/21 09:30:40;;;;;;;48.60;23.98;;;5.90;99.90;;;;;;5031198;28;20072;-55
2021/01/21 09:33:06;;;;;;;41.67;22.30;;;5.80;99.90;;;;;;5013509;28;20053;-55
2021/01/21 09:35:33;;;;;;;45.75;22.27;;;5.80;99.90;;;;;;5031333;28;20468;-57
2021/01/21 09:37:59;;;;;;;49.35;22.67;;;5.70;99.90;;;;;;5031315;28;20033;-55
2021/01/21 09:40:30;;;;;;;43.60;21.30;;;5.80;99.90;;;;;;5031241;28;20117;-56
2021/01/21 09:43:05;;;;;;;42.05;22.63;;;5.80;99.90;;;;;;5031039;28;20032;-56
2021/01/21 09:45:32;;;;;;;44.92;21.88;;;5.80;99.90;;;;;;5030767;28;20566;-57
2021/01/21 09:47:58;;;;;;;40.75;21.23;;;5.90;99.90;;;;;;5030833;28;20025;-57
2021/01/21 09:50:25;;;;;;;38.53;21.13;;;5.90;99.90;;;;;;5030849;28;20037;-55
2021/01/21 09:52:51;;;;;;;36.92;19.98;;;6.00;99.90;;;;;;5030861;28;20062;-57
2021/01/21 09:55:17;;;;;;;37.85;20.90;;;6.10;99.90;;;;;;5030795;28;20029;-55
2021/01/21 09:57:43;;;;;;;39.03;20.77;;;6.10;99.90;;;;;;5030939;28;20425;-57
2021/01/21 10:00:11;;;;;;;46.60;21.50;;;6.10;99.90;;;;;;5030573;28;20033;-57
2021/01/21 10:02:37;;;;;;;40.92;21.60;;;6.20;99.90;;;;;;5030493;28;20393;-56
2021/01/21 10:05:03;;;;;;;41.30;21.42;;;6.20;99.90;;;;;;5012267;28;20037;-54
2021/01/21 10:07:29;;;;;;;38.30;20.83;;;6.20;99.90;;;;;;5030145;28;20029;-57
2021/01/21 10:09:55;;;;;;;37.67;20.65;;;6.20;99.90;;;;;;5030682;28;20028;-57
2021/01/21 10:12:21;;;;;;;37.95;22.25;;;6.30;99.90;;;;;;5030659;28;20040;-56
2021/01/21 10:14:46;;;;;;;33.75;21.00;;;6.30;99.90;;;;;;5030410;28;20115;-56
2021/01/21 10:17:12;;;;;;;39.25;22.30;;;6.30;99.90;;;;;;5030638;28;20087;-52
2021/01/21 10:19:38;;;;;;;41.50;23.65;;;6.30;99.90;;;;;;5030099;28;20586;-54
2021/01/21 10:22:07;;;;;;;45.20;23.58;;;6.40;99.90;;;;;;5030097;28;20123;-55
2021/01/21 10:24:37;;;;;;;46.60;24.70;;;6.50;99.90;;;;;;5029655;28;20159;-56
2021/01/21 10:27:03;;;;;;;50.38;23.25;;;6.50;99.90;;;;;;5029422;28;20040;-55
2021/01/21 10:29:29;;;;;;;48.15;26.88;;;6.50;99.90;;;;;;5030264;28;20366;-56
2021/01/21 10:31:55;;;;;;;40.50;22.75;;;6.50;99.90;;;;;;5030270;28;20048;-55
2021/01/21 10:34:20;;;;;;;42.63;22.67;;;6.50;99.90;;;;;;5029817;28;20113;-56
2021/01/21 10:36:47;;;;;;;35.28;19.75;;;6.50;99.90;;;;;;5029967;28;20628;-56
2021/01/21 10:39:12;;;;;;;40.25;21.02;;;6.50;99.90;;;;;;5029639;28;20132;-56
2021/01/21 10:41:38;;;;;;;34.53;19.40;;;6.50;99.90;;;;;;5030015;28;20164;-57
2021/01/21 10:44:04;;;;;;;33.97;19.63;;;6.50;99.90;;;;;;5029665;28;20111;-57
2021/01/21 10:46:30;;;;;;;40.42;20.42;;;6.50;99.90;;;;;;5029747;28;20045;-57
2021/01/21 10:48:56;;;;;;;34.92;18.58;;;6.50;99.90;;;;;;5029440;28;20041;-57
2021/01/21 10:51:21;;;;;;;34.58;19.25;;;6.60;99.90;;;;;;5029649;28;20112;-57
2021/01/21 10:53:47;;;;;;;38.75;20.05;;;6.60;99.90;;;;;;5029580;28;20544;-57
2021/01/21 10:56:16;;;;;;;34.63;18.95;;;6.60;99.90;;;;;;5029648;28;20137;-54
2021/01/21 10:58:42;;;;;;;36.83;19.70;;;6.60;99.90;;;;;;5029410;28;20029;-53
2021/01/21 11:01:08;;;;;;;44.00;23.25;;;6.60;99.90;;;;;;5029407;28;20037;-55
2021/01/21 11:03:33;;;;;;;46.22;21.45;;;6.60;99.90;;;;;;5029301;28;20137;-56
2021/01/21 11:05:59;;;;;;;37.47;20.40;;;6.60;99.90;;;;;;5029241;28;20033;-57
2021/01/21 11:08:25;;;;;;;35.67;19.52;;;6.50;99.90;;;;;;5029229;28;20034;-56
2021/01/21 11:10:50;;;;;;;35.90;20.73;;;6.50;99.90;;;;;;5027514;28;20182;-57
2021/01/21 11:13:19;;;;;;;32.42;19.23;;;6.60;99.90;;;;;;5022900;28;20127;-57
2021/01/21 11:15:45;;;;;;;34.53;19.65;;;6.60;99.90;;;;;;5022411;28;20397;-57
2021/01/21 11:18:11;;;;;;;36.40;20.00;;;6.60;99.90;;;;;;5025393;28;20033;-56
2021/01/21 11:20:37;;;;;;;37.13;19.02;;;6.50;99.90;;;;;;5025364;28;20036;-55
2021/01/21 11:23:03;;;;;;;36.97;19.25;;;6.50;99.90;;;;;;5029290;28;20029;-56
2021/01/21 11:25:29;;;;;;;35.50;19.50;;;6.50;99.90;;;;;;5019219;28;20060;-51
2021/01/21 11:27:55;;;;;;;33.25;19.55;;;6.50;99.90;;;;;;5021066;28;20477;-54
2021/01/21 11:30:21;;;;;;;38.83;19.45;;;6.50;99.90;;;;;;5010448;28;20041;-56
2021/01/21 11:32:47;;;;;;;33.67;18.98;;;6.60;99.90;;;;;;5020688;28;20022;-54
2021/01/21 11:35:13;;;;;;;36.60;19.85;;;6.60;99.90;;;;;;5004709;28;20140;-56
2021/01/21 11:37:39;;;;;;;33.75;20.02;;;6.70;99.90;;;;;;5035688;28;20365;-54
2021/01/21 11:40:05;;;;;;;36.33;20.10;;;6.70;99.90;;;;;;5043873;28;20040;-56
2021/01/21 11:42:31;;;;;;;39.08;20.45;;;6.70;99.90;;;;;;5028735;28;20061;-56
2021/01/21 11:44:57;;;;;;;33.65;19.40;;;6.70;99.90;;;;;;5023613;28;20470;-57
2021/01/21 11:47:23;;;;;;;30.80;17.27;;;6.80;99.90;;;;;;5027301;28;20033;-55
2021/01/21 11:49:49;;;;;;;27.50;17.30;;;6.80;99.90;;;;;;5025814;28;20120;-57
2021/01/21 11:52:15;;;;;;;36.70;19.20;;;6.90;99.90;;;;;;5022062;28;20141;-56
2021/01/21 11:54:40;;;;;;;36.05;19.35;;;6.80;99.90;;;;;;5027985;28;20041;-56
2021/01/21 11:57:06;;;;;;;35.25;18.67;;;6.80;99.90;;;;;;5027446;28;20104;-56
2021/01/21 11:59:32;;;;;;;36.13;20.52;;;6.90;99.90;;;;;;5025900;28;20040;-55
2021/01/21 12:01:58;;;;;;;35.70;18.92;;;6.90;99.90;;;;;;5028208;28;20423;-53
2021/01/21 12:04:24;;;;;;;32.67;19.00;;;6.90;99.90;;;;;;5028258;28;20033;-55
2021/01/21 12:06:50;;;;;;;29.05;19.10;;;6.90;99.90;;;;;;5021801;28;20779;-57
2021/01/21 12:09:16;;;;;;;30.65;19.00;;;6.80;99.90;;;;;;5027889;28;20026;-55
2021/01/21 12:11:42;;;;;;;36.05;19.45;;;6.80;99.90;;;;;;5028259;28;20087;-56
2021/01/21 12:14:08;;;;;;;36.47;20.60;;;6.70;99.90;;;;;;5027127;28;20033;-57
2021/01/21 12:16:33;;;;;;;37.28;20.73;;;6.70;99.90;;;;;;5028097;28;20033;-57
2021/01/21 12:18:59;;;;;;;35.55;20.48;;;6.70;99.90;;;;;;5023276;28;20037;-57
2021/01/21 12:21:27;;;;;;;39.67;20.50;;;6.70;99.90;;;;;;5026337;28;20071;-53
2021/01/21 12:23:52;;;;;;;38.83;21.02;;;6.70;99.90;;;;;;5028002;28;20346;-53
2021/01/21 12:26:18;;;;;;;38.08;21.70;;;6.70;99.90;;;;;;5028241;28;20036;-55
2021/01/21 12:28:44;;;;;;;37.95;19.67;;;6.70;99.90;;;;;;5028090;28;20191;-55
2021/01/21 12:31:09;;;;;;;35.10;19.88;;;6.60;99.90;;;;;;5028110;28;20102;-56
2021/01/21 12:33:35;;;;;;;37.15;19.73;;;6.60;99.90;;;;;;5028309;28;20116;-56
2021/01/21 12:36:03;;;;;;;34.80;20.38;;;6.60;99.90;;;;;;5028197;28;20388;-57
2021/01/21 12:38:29;;;;;;;37.67;19.05;;;6.50;99.90;;;;;;5028165;28;20043;-57
2021/01/21 12:40:54;;;;;;;38.00;19.85;;;6.50;99.90;;;;;;5028294;28;20116;-56
2021/01/21 12:43:21;;;;;;;37.60;20.40;;;6.50;99.90;;;;;;5027746;28;20092;-55